Albany, New Hampshire
Current Conditions -  °F | °C
As of 5:54 AM on Thursday 23 Oct 2014 (Local Time) from KIZG Reporting Station
Light Rain Light Rain  
Wind Chill: 43°   Ceiling: 1100
Heat Index: 47°   Visibility: 10mi
Dew Point: 45°   Wind: 9mph
Humidity: 93%   Direction: 10°N
Pressure: 29.91"   Gusts: NA
Location:  43.9735°N, 71.2576°W
Report Text: KIZG 230954Z AUTO 01008KT 10SM -RA OVC011 08/07 A2991 RMK AO2 SLP130 P0002 T00830072
Loading
Personal Weather Stations






























Interactive Weather Map New forecast layout! Learn more

10-Day Weather Forecast

Advertisements
Track Severe Weather on mobile